createdAt,value
2019-05-16T00:00:25.292Z,76.4660
2019-05-16T00:01:29.950Z,76.7758
2019-05-16T00:02:33.305Z,76.7819
2019-05-16T00:03:38.288Z,77.0733
2019-05-16T00:04:41.280Z,77.1099
2019-05-16T00:05:53.368Z,77.2671
2019-05-16T00:06:52.300Z,77.2747
2019-05-16T00:07:55.304Z,77.3495
2019-05-16T00:08:58.572Z,77.1740
2019-05-16T00:10:01.308Z,77.0779
2019-05-16T00:11:04.270Z,77.0367
2019-05-16T00:12:08.802Z,77.0932
2019-05-16T00:13:12.273Z,77.0016
2019-05-16T00:14:15.313Z,77.0382
2019-05-16T00:15:18.405Z,77.2564
2019-05-16T00:16:22.317Z,77.0840
2019-05-16T00:17:25.267Z,77.2763
2019-05-16T00:18:28.517Z,77.2931
2019-05-16T00:19:30.360Z,77.3495
2019-05-16T00:20:33.290Z,77.3526
2019-05-16T00:21:38.215Z,77.4823
2019-05-16T00:22:43.321Z,77.5174
2019-05-16T00:23:48.300Z,77.5875
2019-05-16T00:24:51.332Z,77.7340
2019-05-16T00:25:54.275Z,78.0453
2019-05-16T00:26:58.001Z,78.1323
2019-05-16T00:28:01.303Z,78.4283
2019-05-16T00:29:04.295Z,78.5443
2019-05-16T00:30:08.617Z,78.6816
2019-05-16T00:31:12.315Z,78.7594
2019-05-16T00:32:15.281Z,78.9868
2019-05-16T00:33:18.467Z,79.0280
2019-05-16T00:34:21.291Z,79.3210
2019-05-16T00:35:24.338Z,79.4507
2019-05-16T00:36:27.803Z,79.5911
2019-05-16T00:37:31.267Z,79.8489
2019-05-16T00:38:34.311Z,79.9115
2019-05-16T00:39:38.796Z,79.9222
2019-05-16T00:40:42.372Z,80.1083
2019-05-16T00:41:45.264Z,80.1953
2019-05-16T00:42:49.105Z,80.2594
2019-05-16T00:43:52.285Z,80.3296
2019-05-16T00:44:55.331Z,80.3326
2019-05-16T00:45:58.947Z,80.4761
2019-05-16T00:47:02.332Z,80.4623
2019-05-16T00:48:05.282Z,80.4425
2019-05-16T00:49:08.483Z,80.4349
2019-05-16T00:50:11.366Z,80.4623
2019-05-16T00:51:14.285Z,80.5081
2019-05-16T00:52:18.367Z,80.5127
2019-05-16T00:53:21.311Z,80.5341
2019-05-16T00:54:24.336Z,80.3098
2019-05-16T00:55:28.366Z,80.2335
2019-05-16T00:56:31.277Z,80.4150
2019-05-16T00:57:33.340Z,80.4517
2019-05-16T00:58:37.804Z,80.3754
2019-05-16T00:59:41.326Z,80.3342
2019-05-16T01:00:44.282Z,80.3708
2019-05-16T01:01:50.060Z,80.3601
2019-05-16T01:02:53.299Z,80.4883
2019-05-16T01:03:58.468Z,80.2014
2019-05-16T01:05:01.328Z,80.2655
2019-05-16T01:06:15.834Z,80.2976
2019-05-16T01:07:12.281Z,79.8489
2019-05-16T01:08:15.305Z,79.9756
2019-05-16T01:09:18.848Z,80.0000
2019-05-16T01:10:22.295Z,80.1556
2019-05-16T01:11:27.634Z,80.1556
2019-05-16T01:12:29.309Z,80.0000
2019-05-16T01:13:32.301Z,79.7940
2019-05-16T01:14:35.311Z,79.7879
2019-05-16T01:15:38.319Z,79.9573
2019-05-16T01:16:41.291Z,79.7482
2019-05-16T01:17:44.324Z,79.6063
2019-05-16T01:18:48.617Z,79.7147
2019-05-16T01:19:52.341Z,79.6368
2019-05-16T01:20:55.303Z,79.5422
2019-05-16T01:21:59.014Z,79.7375
2019-05-16T01:23:02.306Z,79.6887
2019-05-16T01:24:05.318Z,79.6780
2019-05-16T01:25:09.412Z,79.6323
2019-05-16T01:26:12.313Z,79.4858
2019-05-16T01:27:15.291Z,79.5453
2019-05-16T01:28:19.294Z,79.6231
2019-05-16T01:29:22.299Z,79.5605
2019-05-16T01:30:25.344Z,79.8444
2019-05-16T01:31:28.303Z,79.9161
2019-05-16T01:32:32.213Z,79.8016
2019-05-16T01:33:35.291Z,79.6689
2019-05-16T01:34:38.352Z,79.7925
2019-05-16T01:35:41.836Z,79.7101
2019-05-16T01:36:45.342Z,79.9344
2019-05-16T01:37:48.748Z,79.9390
2019-05-16T01:38:52.349Z,79.7482
2019-05-16T01:39:55.295Z,79.4095
2019-05-16T01:40:58.483Z,79.6475
2019-05-16T01:42:01.310Z,79.8337
2019-05-16T01:43:03.283Z,79.8352
2019-05-16T01:44:07.870Z,79.5819
2019-05-16T01:45:11.327Z,79.7803
2019-05-16T01:46:18.048Z,79.6704
2019-05-16T01:47:23.305Z,79.7147
2019-05-16T01:48:29.150Z,79.7620
2019-05-16T01:49:34.291Z,79.8077
2019-05-16T01:50:38.818Z,79.5926
2019-05-16T01:51:42.277Z,79.7391
2019-05-16T01:52:45.302Z,79.6277
2019-05-16T01:53:48.845Z,79.4583
2019-05-16T01:54:51.266Z,79.5453
2019-05-16T01:55:54.352Z,79.4217
2019-05-16T01:56:59.377Z,79.5499
2019-05-16T01:58:03.352Z,79.5926
2019-05-16T01:59:08.869Z,79.4995
2019-05-16T02:00:11.295Z,79.5468
2019-05-16T02:01:15.911Z,79.5926
2019-05-16T02:02:19.305Z,79.3851
2019-05-16T02:03:22.312Z,79.2172
2019-05-16T02:04:25.274Z,79.0509
2019-05-16T02:05:28.306Z,79.2721
2019-05-16T02:06:31.298Z,79.3088
2019-05-16T02:07:34.322Z,79.2721
2019-05-16T02:08:38.032Z,79.2218
2019-05-16T02:09:41.308Z,79.0829
2019-05-16T02:10:44.276Z,79.1196
2019-05-16T02:11:48.107Z,79.3317
2019-05-16T02:12:51.289Z,79.3225
2019-05-16T02:13:54.293Z,79.2355
2019-05-16T02:14:58.728Z,79.3713
2019-05-16T02:16:02.297Z,79.4690
2019-05-16T02:17:05.332Z,79.4415
2019-05-16T02:18:08.479Z,79.4690
2019-05-16T02:19:11.325Z,79.7467
2019-05-16T02:20:14.305Z,79.6658
2019-05-16T02:21:18.189Z,79.6460
2019-05-16T02:22:21.296Z,79.8123
2019-05-16T02:23:24.285Z,80.1373
2019-05-16T02:24:28.494Z,80.2182
2019-05-16T02:25:30.280Z,80.0946
2019-05-16T02:26:33.328Z,80.0961
2019-05-16T02:27:40.598Z,80.1602
2019-05-16T02:28:44.341Z,80.3113
2019-05-16T02:29:47.270Z,80.4028
2019-05-16T02:30:51.368Z,80.4212
2019-05-16T02:31:55.289Z,80.5264
2019-05-16T02:33:01.088Z,80.4562
2019-05-16T02:34:04.806Z,80.6210
2019-05-16T02:35:11.264Z,80.7370
2019-05-16T02:36:15.331Z,80.8499
2019-05-16T02:37:25.811Z,80.5936
2019-05-16T02:38:26.315Z,80.5219
2019-05-16T02:39:30.589Z,80.6455
2019-05-16T02:40:33.306Z,80.5570
2019-05-16T02:41:36.257Z,80.6821
2019-05-16T02:42:41.951Z,80.7813
2019-05-16T02:43:45.279Z,81.0803
2019-05-16T02:44:51.105Z,81.0803
2019-05-16T02:45:54.252Z,81.0300
2019-05-16T02:46:57.248Z,80.9934
2019-05-16T02:48:01.346Z,81.1612
2019-05-16T02:49:04.294Z,81.2070
2019-05-16T02:50:06.311Z,81.1536
2019-05-16T02:51:11.079Z,81.2345
2019-05-16T02:52:14.319Z,81.1673
2019-05-16T02:53:17.307Z,81.2757
2019-05-16T02:54:21.813Z,81.3626
2019-05-16T02:55:25.303Z,81.3230
2019-05-16T02:56:27.319Z,81.3397
2019-05-16T02:57:31.660Z,81.1444
2019-05-16T02:58:35.303Z,81.2497
2019-05-16T02:59:41.275Z,81.3123
2019-05-16T03:00:44.286Z,81.3992
2019-05-16T03:01:47.315Z,81.5549
2019-05-16T03:02:50.523Z,81.7761
2019-05-16T03:03:53.323Z,82.0050
2019-05-16T03:04:56.284Z,82.0447
2019-05-16T03:06:01.392Z,81.6754
2019-05-16T03:07:04.315Z,81.9135
2019-05-16T03:08:07.284Z,81.6846
2019-05-16T03:09:11.243Z,81.8311
2019-05-16T03:10:14.299Z,81.7166
2019-05-16T03:11:20.711Z,82.0279
2019-05-16T03:12:23.272Z,82.0356
2019-05-16T03:13:26.337Z,81.8494
2019-05-16T03:14:31.619Z,81.9318
2019-05-16T03:15:34.298Z,81.9394
2019-05-16T03:16:37.284Z,81.8387
2019-05-16T03:17:40.446Z,81.9120
2019-05-16T03:18:43.331Z,81.8723
2019-05-16T03:19:46.284Z,81.6434
2019-05-16T03:20:51.007Z,81.6205
2019-05-16T03:21:54.277Z,81.4908
2019-05-16T03:22:57.324Z,81.5229
2019-05-16T03:24:00.854Z,81.3672
2019-05-16T03:25:04.298Z,81.2726
2019-05-16T03:26:07.285Z,81.2070
2019-05-16T03:27:10.825Z,81.3992
2019-05-16T03:28:14.305Z,81.1765
2019-05-16T03:29:17.314Z,81.0620
2019-05-16T03:30:23.728Z,81.1170
2019-05-16T03:31:26.282Z,81.1246
2019-05-16T03:32:34.060Z,81.0697
2019-05-16T03:33:48.442Z,81.3214
2019-05-16T03:34:45.328Z,81.1307
2019-05-16T03:35:53.657Z,81.1307
2019-05-16T03:36:56.336Z,81.2589
2019-05-16T03:38:01.451Z,81.2116
2019-05-16T03:39:10.488Z,81.0895
2019-05-16T03:40:13.274Z,80.8560
2019-05-16T03:41:16.319Z,80.7599
2019-05-16T03:42:20.461Z,80.8866
2019-05-16T03:43:23.277Z,80.8774
2019-05-16T03:44:26.352Z,80.9201
2019-05-16T03:45:31.791Z,81.0880
2019-05-16T03:46:36.377Z,80.9140
2019-05-16T03:47:42.619Z,80.8103
2019-05-16T03:48:46.346Z,81.0513
2019-05-16T03:49:51.728Z,80.9598
2019-05-16T03:50:55.284Z,80.8560
2019-05-16T03:52:01.342Z,80.9094
2019-05-16T03:53:04.306Z,81.0056
2019-05-16T03:54:07.352Z,80.9781
2019-05-16T03:55:10.999Z,81.0056
2019-05-16T03:56:14.295Z,81.0513
2019-05-16T03:57:20.907Z,80.9888
2019-05-16T03:58:24.310Z,81.1841
2019-05-16T03:59:27.326Z,81.2848
2019-05-16T04:00:31.586Z,81.1154
2019-05-16T04:01:33.296Z,81.2726
2019-05-16T04:02:35.489Z,81.1521
2019-05-16T04:03:41.229Z,81.2940
2019-05-16T04:04:44.301Z,81.3138
2019-05-16T04:05:47.282Z,81.3230
2019-05-16T04:06:50.764Z,81.3596
2019-05-16T04:08:10.161Z,81.5091
2019-05-16T04:09:01.717Z,81.5595
2019-05-16T04:10:06.352Z,81.3825
2019-05-16T04:11:11.734Z,81.4267
2019-05-16T04:12:14.262Z,81.3626
2019-05-16T04:13:17.302Z,81.5915
2019-05-16T04:14:21.365Z,81.5091
2019-05-16T04:15:24.265Z,81.6754
2019-05-16T04:16:31.318Z,81.5137
2019-05-16T04:17:34.293Z,81.6190
2019-05-16T04:18:37.277Z,81.4862
2019-05-16T04:19:41.531Z,81.8982
2019-05-16T04:20:44.300Z,81.7105
2019-05-16T04:21:50.824Z,81.8158
2019-05-16T04:22:54.300Z,81.7517
2019-05-16T04:23:57.321Z,81.8936
2019-05-16T04:25:01.896Z,81.9409
2019-05-16T04:26:05.287Z,81.8570
2019-05-16T04:27:07.291Z,82.0356
2019-05-16T04:28:11.578Z,81.8753
2019-05-16T04:29:14.333Z,81.8936
2019-05-16T04:30:17.362Z,82.1454
2019-05-16T04:31:22.087Z,82.0279
2019-05-16T04:32:25.351Z,82.1012
2019-05-16T04:33:30.987Z,82.2110
2019-05-16T04:34:34.351Z,82.2522
2019-05-16T04:35:37.288Z,82.2568
2019-05-16T04:36:40.829Z,82.4537
2019-05-16T04:37:44.321Z,82.5483
2019-05-16T04:38:47.331Z,82.4537
2019-05-16T04:39:50.764Z,82.3667
2019-05-16T04:40:54.294Z,82.2507
2019-05-16T04:41:57.306Z,82.2141
2019-05-16T04:43:01.365Z,82.3301
2019-05-16T04:44:04.907Z,81.8936
2019-05-16T04:45:11.515Z,81.7578
2019-05-16T04:46:14.317Z,81.8067
2019-05-16T04:47:17.326Z,81.9989
2019-05-16T04:48:22.290Z,81.9486
2019-05-16T04:49:25.352Z,81.9852
2019-05-16T04:50:30.968Z,81.8631
2019-05-16T04:51:34.297Z,81.9120
2019-05-16T04:52:37.291Z,81.8082
2019-05-16T04:53:42.464Z,81.8219
2019-05-16T04:54:46.350Z,81.8067
2019-05-16T04:55:51.566Z,81.7792
2019-05-16T04:56:54.327Z,81.9257
2019-05-16T04:57:57.310Z,81.5381
2019-05-16T04:59:00.550Z,81.3352
2019-05-16T05:00:04.303Z,81.0147
2019-05-16T05:01:07.329Z,80.8789
2019-05-16T05:02:12.220Z,80.7141
2019-05-16T05:03:16.298Z,80.7218
2019-05-16T05:04:21.094Z,80.6958
2019-05-16T05:05:24.339Z,80.7950
2019-05-16T05:06:27.313Z,80.5951
2019-05-16T05:07:31.242Z,80.5768
2019-05-16T05:08:49.121Z,80.6546
2019-05-16T05:09:42.326Z,80.5539
2019-05-16T05:10:45.327Z,80.3922
2019-05-16T05:11:48.289Z,80.2136
2019-05-16T05:12:51.461Z,80.3388
2019-05-16T05:13:55.290Z,80.1144
2019-05-16T05:15:00.998Z,80.4471
2019-05-16T05:16:04.306Z,80.3006
2019-05-16T05:17:07.289Z,80.3372
2019-05-16T05:18:10.347Z,80.2136
2019-05-16T05:19:13.314Z,80.1144
2019-05-16T05:20:16.331Z,80.3281
2019-05-16T05:21:20.953Z,80.3250
2019-05-16T05:22:24.302Z,80.2838
2019-05-16T05:23:29.961Z,80.1495
2019-05-16T05:24:33.313Z,80.0046
2019-05-16T05:25:36.314Z,79.8260
2019-05-16T05:26:41.460Z,79.5331
2019-05-16T05:27:45.310Z,79.2538
2019-05-16T05:28:50.573Z,79.1058
2019-05-16T05:29:54.305Z,79.0372
2019-05-16T05:30:59.549Z,78.5260
2019-05-16T05:32:04.702Z,78.2147
2019-05-16T05:33:10.117Z,78.3978
2019-05-16T05:34:13.332Z,78.5672
2019-05-16T05:35:15.313Z,78.8190
2019-05-16T05:36:20.815Z,78.9746
2019-05-16T05:37:24.290Z,78.8785
2019-05-16T05:38:27.273Z,78.5382
2019-05-16T05:39:30.451Z,77.9660
2019-05-16T05:40:33.321Z,77.4868
2019-05-16T05:41:36.365Z,76.8917
2019-05-16T05:42:39.869Z,76.4279
2019-05-16T05:43:42.340Z,76.1212
2019-05-16T05:44:45.296Z,75.7092
2019-05-16T05:45:50.901Z,75.2789
2019-05-16T05:46:54.283Z,74.8211
2019-05-16T05:48:00.003Z,74.1344
2019-05-16T05:49:03.294Z,74.0291
2019-05-16T05:50:06.304Z,73.6980
2019-05-16T05:51:11.265Z,73.5424
2019-05-16T05:52:15.307Z,73.7499
2019-05-16T05:53:20.633Z,73.6156
2019-05-16T05:54:24.282Z,73.8354
2019-05-16T05:55:27.322Z,73.4432
2019-05-16T05:56:30.612Z,73.1075
2019-05-16T05:57:33.357Z,73.2967
2019-05-16T05:58:36.304Z,73.5943
2019-05-16T05:59:40.462Z,74.5006
2019-05-16T06:00:43.305Z,75.4574
2019-05-16T06:01:46.307Z,75.8206
2019-05-16T06:02:50.846Z,76.2859
2019-05-16T06:03:54.295Z,76.6476
2019-05-16T06:04:59.564Z,76.7941
2019-05-16T06:06:03.300Z,76.4782
2019-05-16T06:07:06.340Z,76.1227
2019-05-16T06:08:10.679Z,75.4116
2019-05-16T06:09:25.271Z,74.6471
2019-05-16T06:10:22.317Z,74.5510
2019-05-16T06:11:25.333Z,74.6365
2019-05-16T06:12:30.363Z,74.8333
2019-05-16T06:13:33.289Z,75.0546
2019-05-16T06:14:36.328Z,75.0866
2019-05-16T06:15:39.967Z,75.0652
2019-05-16T06:16:43.302Z,75.1415
2019-05-16T06:17:46.299Z,75.3948
2019-05-16T06:18:50.291Z,75.6008
2019-05-16T06:19:53.302Z,75.6725
2019-05-16T06:20:56.289Z,75.3307
2019-05-16T06:22:01.002Z,75.1141
2019-05-16T06:23:04.307Z,75.0515
2019-05-16T06:24:07.355Z,74.0932
2019-05-16T06:25:13.145Z,74.2672
2019-05-16T06:26:20.148Z,73.8094
2019-05-16T06:27:23.301Z,73.6110
2019-05-16T06:28:26.349Z,73.0632
2019-05-16T06:29:30.965Z,72.6589
2019-05-16T06:30:34.319Z,73.2692
2019-05-16T06:31:37.307Z,72.9976
2019-05-16T06:32:40.342Z,72.6314
2019-05-16T06:33:43.355Z,72.2072
2019-05-16T06:34:46.297Z,71.8959
2019-05-16T06:35:51.330Z,71.4321
2019-05-16T06:36:54.287Z,71.2215
2019-05-16T06:37:57.297Z,71.5694
2019-05-16T06:39:00.318Z,71.4565
2019-05-16T06:40:03.329Z,71.4244
2019-05-16T06:41:06.309Z,71.7800
2019-05-16T06:42:09.835Z,71.5740
2019-05-16T06:43:13.328Z,71.1208
2019-05-16T06:44:16.308Z,71.3832
2019-05-16T06:45:20.485Z,71.8669
2019-05-16T06:46:24.325Z,71.4916
2019-05-16T06:47:27.334Z,71.8502
2019-05-16T06:48:30.603Z,72.4071
2019-05-16T06:49:34.343Z,72.2759
2019-05-16T06:50:37.298Z,72.1645
2019-05-16T06:51:40.344Z,72.2759
2019-05-16T06:52:45.773Z,72.3476
2019-05-16T06:53:50.073Z,72.6970
2019-05-16T06:54:53.917Z,73.0632
2019-05-16T06:55:56.301Z,73.5164
2019-05-16T06:57:00.136Z,73.8415
2019-05-16T06:58:03.334Z,74.0047
2019-05-16T06:59:06.335Z,73.2555
2019-05-16T07:00:10.980Z,72.9671
2019-05-16T07:01:14.337Z,72.5185
2019-05-16T07:02:27.791Z,72.7047
2019-05-16T07:03:25.359Z,72.9168
2019-05-16T07:04:30.329Z,71.6793
2019-05-16T07:05:32.345Z,71.6167
2019-05-16T07:06:51.668Z,71.8135
2019-05-16T07:07:43.326Z,71.8822
2019-05-16T07:08:46.292Z,72.0058
2019-05-16T07:09:59.918Z,71.4977
2019-05-16T07:10:57.353Z,71.5328
2019-05-16T07:12:00.311Z,71.5190
2019-05-16T07:13:03.355Z,71.6976
2019-05-16T07:14:06.297Z,71.5648
2019-05-16T07:15:12.464Z,70.7103
2019-05-16T07:16:15.310Z,70.9850
2019-05-16T07:17:20.198Z,70.9987
2019-05-16T07:18:22.349Z,71.0842
2019-05-16T07:19:25.335Z,70.8064
2019-05-16T07:20:30.205Z,71.5648
2019-05-16T07:21:33.273Z,71.9631
2019-05-16T07:22:36.340Z,71.8303
2019-05-16T07:23:40.466Z,70.7973
2019-05-16T07:24:42.327Z,71.1452
2019-05-16T07:25:45.328Z,70.9377
2019-05-16T07:26:50.023Z,70.8736
2019-05-16T07:27:53.341Z,70.9346
2019-05-16T07:28:56.297Z,70.6371
2019-05-16T07:30:01.069Z,71.1620
2019-05-16T07:31:14.840Z,70.4158
2019-05-16T07:32:12.681Z,70.2068
2019-05-16T07:33:16.314Z,70.1732
2019-05-16T07:34:20.643Z,69.6834
2019-05-16T07:35:24.313Z,69.6208
2019-05-16T07:36:27.341Z,69.5918
2019-05-16T07:37:31.610Z,69.5567
2019-05-16T07:38:35.311Z,69.1020
2019-05-16T07:39:39.295Z,69.4682
2019-05-16T07:40:45.301Z,69.4377
2019-05-16T07:41:50.663Z,69.8573
2019-05-16T07:42:54.323Z,68.7083
2019-05-16T07:43:57.327Z,68.1010
2019-05-16T07:45:00.687Z,67.8981
2019-05-16T07:46:04.337Z,67.0756
2019-05-16T07:47:07.310Z,67.7058
2019-05-16T07:48:10.758Z,67.1992
2019-05-16T07:49:14.306Z,66.6590
2019-05-16T07:50:16.335Z,67.2175
2019-05-16T07:51:20.519Z,66.6545
2019-05-16T07:52:23.363Z,66.7872
2019-05-16T07:53:26.336Z,66.5843
2019-05-16T07:54:34.087Z,66.8498
2019-05-16T07:55:37.315Z,66.3096
2019-05-16T07:56:40.890Z,66.0365
2019-05-16T07:57:44.353Z,65.6748
2019-05-16T07:58:47.311Z,66.2516
2019-05-16T07:59:50.667Z,66.1173
2019-05-16T08:01:02.752Z,65.9800
2019-05-16T08:02:02.332Z,66.1875
2019-05-16T08:03:05.325Z,66.0716
2019-05-16T08:04:10.438Z,65.9220
2019-05-16T08:05:14.352Z,65.9541
2019-05-16T08:06:17.313Z,65.8946
2019-05-16T08:07:20.360Z,66.2379
2019-05-16T08:08:24.545Z,66.8086
2019-05-16T08:09:27.317Z,67.3671
2019-05-16T08:10:37.935Z,67.2541
2019-05-16T08:11:40.656Z,67.0970
2019-05-16T08:12:44.394Z,68.0308
2019-05-16T08:13:47.340Z,68.1239
2019-05-16T08:14:50.378Z,66.3569
2019-05-16T08:15:53.302Z,66.1692
2019-05-16T08:16:56.312Z,64.9409
2019-05-16T08:18:03.242Z,63.9246
2019-05-16T08:19:06.347Z,64.0909
2019-05-16T08:20:10.893Z,63.9887
2019-05-16T08:21:16.893Z,64.4511
2019-05-16T08:22:22.529Z,64.8646
2019-05-16T08:23:26.334Z,65.3452
2019-05-16T08:24:30.580Z,64.4938
2019-05-16T08:25:36.304Z,65.1621
2019-05-16T08:27:47.362Z,65.2033
2019-05-16T08:28:50.668Z,65.4307
2019-05-16T08:29:54.304Z,65.9571
2019-05-16T08:31:00.594Z,65.5467
2019-05-16T08:32:04.311Z,61.9928
2019-05-16T08:33:07.314Z,62.9877
2019-05-16T08:34:12.185Z,62.4277
2019-05-16T08:35:15.322Z,61.9074
2019-05-16T08:36:20.640Z,62.5742
2019-05-16T08:38:32.318Z,62.0859
2019-05-16T08:39:35.311Z,62.7573
2019-05-16T08:41:01.221Z,62.5742
2019-05-16T08:41:46.289Z,62.4979
2019-05-16T08:42:51.658Z,62.1576
2019-05-16T08:43:54.330Z,62.4887
2019-05-16T08:44:57.308Z,61.0697
2019-05-16T08:46:01.038Z,60.7813
2019-05-16T08:47:06.272Z,61.4252
2019-05-16T08:48:11.502Z,61.5763
2019-05-16T08:49:14.374Z,62.5513
2019-05-16T08:50:08.650Z,62.5834
2019-05-16T08:50:17.299Z,60.8270
2019-05-16T08:51:22.182Z,60.2960
2019-05-16T08:52:25.266Z,60.6104
2019-05-16T08:53:31.401Z,61.4939
2019-05-16T08:54:36.396Z,62.2812
2019-05-16T08:55:43.328Z,62.4338
2019-05-16T08:56:46.333Z,62.2324
2019-05-16T08:57:53.017Z,61.9058
2019-05-16T08:58:56.345Z,60.6607
2019-05-16T09:00:01.376Z,58.3078
2019-05-16T09:01:05.303Z,57.2381
2019-05-16T09:02:12.001Z,57.7539
2019-05-16T09:03:15.320Z,59.4675
2019-05-16T09:04:23.862Z,59.4064
2019-05-16T09:05:26.440Z,59.3652
2019-05-16T09:06:31.993Z,58.6557
2019-05-16T09:07:35.365Z,58.8495
2019-05-16T09:08:38.339Z,57.1176
2019-05-16T09:09:48.696Z,56.3226
2019-05-16T09:10:10.717Z,65.0797
2019-05-16T09:11:00.766Z,56.5240
2019-05-16T09:11:57.575Z,57.1511
2019-05-16T09:13:00.383Z,58.4146
2019-05-16T09:14:03.313Z,58.6419
2019-05-16T09:15:07.644Z,59.8291
2019-05-16T09:16:11.331Z,59.8367
2019-05-16T09:17:14.339Z,59.6719
2019-05-16T09:18:17.869Z,59.6048
2019-05-16T09:19:21.344Z,58.8861
2019-05-16T09:20:24.299Z,56.9955
2019-05-16T09:21:27.640Z,57.7417
2019-05-16T09:22:31.305Z,57.4533
2019-05-16T09:23:34.305Z,58.3810
2019-05-16T09:24:37.824Z,58.4649
2019-05-16T09:25:41.264Z,58.5794
2019-05-16T09:26:47.161Z,59.8154
2019-05-16T09:27:50.312Z,59.3606
2019-05-16T09:28:53.299Z,59.3332
2019-05-16T09:29:56.900Z,56.3684
2019-05-16T09:31:00.300Z,55.7214
2019-05-16T09:32:15.918Z,57.7646
2019-05-16T09:33:11.266Z,59.4751
2019-05-16T09:34:17.302Z,60.7294
2019-05-16T09:35:21.332Z,61.0040
2019-05-16T09:36:24.389Z,60.9445
2019-05-16T09:37:27.299Z,60.7080
2019-05-16T09:38:30.302Z,60.8026
2019-05-16T09:39:33.319Z,61.7182
2019-05-16T09:40:38.877Z,61.7426
2019-05-16T09:41:50.609Z,61.5579
2019-05-16T09:42:50.310Z,61.3153
2019-05-16T09:43:53.346Z,60.8438
2019-05-16T09:44:57.740Z,60.8545
2019-05-16T09:46:07.590Z,60.4105
2019-05-16T09:47:09.311Z,60.3861
2019-05-16T09:48:12.339Z,60.3723
2019-05-16T09:49:20.392Z,60.5875
2019-05-16T09:50:23.321Z,60.2136
2019-05-16T09:51:27.154Z,60.1633
2019-05-16T09:52:30.341Z,59.8413
2019-05-16T09:53:33.305Z,60.4227
2019-05-16T09:54:37.902Z,60.3326
2019-05-16T09:55:41.289Z,60.3235
2019-05-16T09:56:46.369Z,60.5707
2019-05-16T09:57:50.346Z,61.2375
2019-05-16T09:58:52.313Z,61.1643
2019-05-16T09:59:57.203Z,61.4221
2019-05-16T10:01:00.314Z,60.9079
2019-05-16T10:02:02.361Z,61.0193
2019-05-16T10:03:07.096Z,61.3947
2019-05-16T10:04:10.287Z,61.2161
2019-05-16T10:05:13.873Z,61.4801
2019-05-16T10:06:19.135Z,61.2390
2019-05-16T10:07:22.370Z,61.0147
2019-05-16T10:08:26.554Z,61.2345
2019-05-16T10:09:40.735Z,61.4160
2019-05-16T10:10:38.330Z,60.7675
2019-05-16T10:11:42.550Z,59.7055
2019-05-16T10:12:46.287Z,59.1882
2019-05-16T10:13:49.371Z,59.9161
2019-05-16T10:14:52.310Z,59.8016
2019-05-16T10:15:55.336Z,59.6368
2019-05-16T10:16:58.328Z,59.8001
2019-05-16T10:18:01.320Z,59.8413
2019-05-16T10:19:04.291Z,60.5798
2019-05-16T10:20:07.886Z,59.7314
2019-05-16T10:21:11.351Z,60.0382
2019-05-16T10:22:16.888Z,59.7864
2019-05-16T10:23:20.335Z,59.7101
2019-05-16T10:27:39.680Z,59.3210
2019-05-16T10:28:42.304Z,58.8434
2019-05-16T10:29:48.094Z,57.5753
2019-05-16T10:30:52.366Z,57.7829
2019-05-16T10:31:56.860Z,57.9843
2019-05-16T10:33:00.978Z,57.4945
2019-05-16T10:34:03.350Z,57.8698
2019-05-16T10:35:06.332Z,58.5870
2019-05-16T10:36:09.333Z,57.3648
2019-05-16T10:37:12.311Z,55.9182
2019-05-16T10:38:15.305Z,55.0759
2019-05-16T10:39:18.303Z,54.5907
2019-05-16T10:40:21.341Z,52.0821
2019-05-16T10:41:24.318Z,53.5836
2019-05-16T10:42:28.906Z,53.9971
2019-05-16T10:43:32.296Z,54.3084
2019-05-16T10:44:38.542Z,55.7824
2019-05-16T10:45:42.303Z,56.1151
2019-05-16T10:46:47.645Z,56.6232
2019-05-16T10:47:50.290Z,56.0250
2019-05-16T10:48:52.627Z,55.0271
2019-05-16T10:49:56.487Z,55.4009
2019-05-16T10:51:00.296Z,58.0667
2019-05-16T10:52:03.341Z,57.4395
2019-05-16T10:53:23.699Z,56.1517
2019-05-16T10:54:17.715Z,55.8450
2019-05-16T10:55:21.329Z,55.3414
2019-05-16T10:56:24.356Z,53.6492
2019-05-16T10:57:29.804Z,52.2835
2019-05-16T10:58:41.401Z,53.7682
2019-05-16T11:00:06.832Z,54.9432
2019-05-16T11:01:11.159Z,51.5923
2019-05-16T11:01:59.686Z,51.0979
2019-05-16T11:03:03.317Z,52.2515
2019-05-16T11:04:07.474Z,52.7199
2019-05-16T11:05:25.133Z,53.5607
2019-05-16T11:06:25.580Z,54.1833
2019-05-16T11:07:29.878Z,54.2031
2019-05-16T11:08:33.344Z,53.8857
2019-05-16T11:09:39.175Z,53.6019
2019-05-16T11:10:42.463Z,52.7596
2019-05-16T11:11:47.621Z,53.8445
2019-05-16T11:12:55.209Z,55.1217
2019-05-16T11:13:58.332Z,53.9590
2019-05-16T11:15:01.351Z,52.6818
2019-05-16T11:16:06.941Z,50.7591
2019-05-16T11:17:13.864Z,51.9127
2019-05-16T11:18:17.640Z,51.5923
2019-05-16T11:19:24.445Z,50.5913
2019-05-16T11:20:28.369Z,50.1839
2019-05-16T11:21:31.350Z,50.9346
2019-05-16T11:22:36.787Z,51.6106
2019-05-16T11:23:40.301Z,51.3588
2019-05-16T11:24:43.330Z,52.4529
2019-05-16T11:25:47.098Z,51.9326
2019-05-16T11:26:50.446Z,51.0903
2019-05-16T11:27:53.281Z,50.2388
2019-05-16T11:28:57.351Z,51.7861
2019-05-16T11:30:00.313Z,51.8898
2019-05-16T11:31:04.029Z,52.2057
2019-05-16T11:32:07.356Z,51.8715
2019-05-16T11:33:10.307Z,51.1086
2019-05-16T11:34:13.333Z,50.7240
2019-05-16T11:35:17.135Z,50.3380
2019-05-16T11:36:20.323Z,49.7810
2019-05-16T11:37:23.347Z,48.7282
2019-05-16T11:38:26.343Z,48.5496
2019-05-16T11:39:29.281Z,49.2546
2019-05-16T11:40:32.288Z,49.3233
2019-05-16T11:41:35.364Z,49.6941
2019-05-16T11:42:38.396Z,48.9479
2019-05-16T11:43:41.312Z,48.4062
2019-05-16T11:44:47.592Z,47.9347
2019-05-16T11:45:51.336Z,47.8355
2019-05-16T11:46:54.300Z,47.8401
2019-05-16T11:47:57.383Z,47.2450
2019-05-16T11:49:00.317Z,47.7119
2019-05-16T11:50:03.319Z,47.3625
2019-05-16T11:51:07.081Z,47.0237
2019-05-16T11:52:10.323Z,46.4393
2019-05-16T11:53:13.379Z,46.2684
2019-05-16T11:54:16.338Z,45.6245
2019-05-16T11:55:19.328Z,45.5970
2019-05-16T11:56:22.286Z,47.5151
2019-05-16T11:57:25.349Z,47.2999
2019-05-16T11:58:28.343Z,48.6122
2019-05-16T11:59:31.348Z,48.1331
2019-05-16T12:00:33.303Z,48.6870
2019-05-16T12:01:36.952Z,46.8467
2019-05-16T12:02:42.674Z,45.9174
2019-05-16T12:03:46.829Z,46.8589
2019-05-16T12:04:50.306Z,46.0533
2019-05-16T12:05:53.307Z,47.6478
2019-05-16T12:06:57.433Z,48.3070
2019-05-16T12:08:00.341Z,50.1411
2019-05-16T12:09:03.342Z,49.9916
2019-05-16T12:10:07.610Z,49.2119
2019-05-16T12:11:10.321Z,49.5888
2019-05-16T12:12:13.304Z,50.2739
2019-05-16T12:13:25.405Z,50.1411
2019-05-16T12:14:24.344Z,50.3426
2019-05-16T12:15:27.518Z,48.9662
2019-05-16T12:16:30.358Z,47.9820
2019-05-16T12:17:33.300Z,47.1199
2019-05-16T12:18:37.286Z,46.3569
2019-05-16T12:19:43.994Z,45.5100
2019-05-16T12:20:47.378Z,44.7868
2019-05-16T12:21:50.280Z,46.6041
2019-05-16T12:22:53.322Z,47.6417
2019-05-16T12:23:56.346Z,49.1722
2019-05-16T12:24:59.304Z,49.5048
2019-05-16T12:26:02.353Z,50.7195
2019-05-16T12:27:07.955Z,51.9829
2019-05-16T12:28:11.346Z,51.9127
2019-05-16T12:29:17.100Z,51.5190
2019-05-16T12:30:20.304Z,50.0450
2019-05-16T12:31:23.286Z,49.2027
2019-05-16T12:32:27.684Z,48.2292
2019-05-16T12:33:30.376Z,47.7607
2019-05-16T12:34:32.453Z,48.1193
2019-05-16T12:35:36.961Z,47.5517
2019-05-16T12:36:39.258Z,46.4576
2019-05-16T12:37:41.510Z,47.9087
2019-05-16T12:38:46.623Z,49.5506
2019-05-16T12:39:50.299Z,50.9804
2019-05-16T12:40:53.309Z,51.3634
2019-05-16T12:41:59.227Z,51.3420
2019-05-16T12:43:03.305Z,51.4748
2019-05-16T12:44:07.548Z,51.4870
2019-05-16T12:45:11.318Z,51.2230
2019-05-16T12:46:14.303Z,50.5501
2019-05-16T12:47:17.327Z,50.1060
2019-05-16T12:48:20.428Z,48.2414
2019-05-16T12:49:24.327Z,48.4474
2019-05-16T12:50:28.655Z,48.3467
2019-05-16T12:51:32.328Z,48.3803
2019-05-16T12:52:38.247Z,48.4535
2019-05-16T12:53:41.367Z,49.9046
2019-05-16T12:54:43.292Z,50.6950
2019-05-16T12:55:47.633Z,50.3624